createdAt,value
2022-12-07T00:01:46.071Z,99739.19
2022-12-07T00:04:16.166Z,99730.09
2022-12-07T00:06:45.634Z,99724.25
2022-12-07T00:09:18.085Z,99721.41
2022-12-07T00:11:46.064Z,99731.94
2022-12-07T00:14:16.309Z,99725.06
2022-12-07T00:16:46.100Z,99720.41
2022-12-07T00:19:15.020Z,99712.00
2022-12-07T00:21:43.236Z,99723.38
2022-12-07T00:24:12.358Z,99728.75
2022-12-07T00:26:42.412Z,99726.75
2022-12-07T00:29:17.645Z,99725.75
2022-12-07T00:31:45.301Z,99727.94
2022-12-07T00:34:22.018Z,99720.38
2022-12-07T00:36:50.960Z,99703.31
2022-12-07T00:39:18.601Z,99718.88
2022-12-07T00:41:45.923Z,99726.91
2022-12-07T00:44:13.724Z,99714.88
2022-12-07T00:46:41.026Z,99721.41
2022-12-07T00:49:08.643Z,99705.00
2022-12-07T00:51:35.928Z,99719.75
2022-12-07T00:54:22.050Z,99718.38
2022-12-07T00:56:49.345Z,99722.06
2022-12-07T00:59:17.686Z,99721.22
2022-12-07T01:01:47.448Z,99714.69
2022-12-07T01:04:16.453Z,99716.03
2022-12-07T01:06:43.712Z,99712.38
2022-12-07T01:09:11.294Z,99702.47
2022-12-07T01:11:38.517Z,99691.13
2022-12-07T01:14:06.123Z,99710.38
2022-12-07T01:16:34.052Z,99708.00
2022-12-07T01:19:02.636Z,99691.94
2022-12-07T01:21:38.928Z,99693.28
2022-12-07T01:24:10.473Z,99695.63
2022-12-07T01:26:39.817Z,99703.69
2022-12-07T01:29:08.727Z,99700.47
2022-12-07T01:31:35.924Z,99702.66
2022-12-07T01:34:03.545Z,99707.69
2022-12-07T01:36:36.275Z,99701.47
2022-12-07T01:39:08.329Z,99688.78
2022-12-07T01:41:41.466Z,99676.22
2022-12-07T01:44:16.565Z,99685.25
2022-12-07T01:46:49.643Z,99677.72
2022-12-07T01:49:23.542Z,99685.94
2022-12-07T01:51:54.015Z,99684.91
2022-12-07T01:54:24.136Z,99686.22
2022-12-07T01:56:55.888Z,99688.72
2022-12-07T01:59:26.550Z,99678.34
2022-12-07T02:01:57.256Z,99686.72
2022-12-07T02:04:25.804Z,99681.22
2022-12-07T02:06:55.918Z,99670.16
2022-12-07T02:09:23.414Z,99678.38
2022-12-07T02:11:51.361Z,99675.16
2022-12-07T02:14:18.888Z,99671.66
2022-12-07T02:17:13.371Z,99665.50
2022-12-07T02:20:17.220Z,99671.16
2022-12-07T02:23:22.976Z,99677.19
2022-12-07T02:25:56.423Z,99663.81
2022-12-07T02:28:56.513Z,99651.94
2022-12-07T02:31:27.088Z,99661.97
2022-12-07T02:34:10.826Z,99657.13
2022-12-07T02:36:46.104Z,99667.84
2022-12-07T02:39:13.885Z,99662.13
2022-12-07T02:41:50.163Z,99669.34
2022-12-07T02:44:23.649Z,99653.63
2022-12-07T02:47:05.010Z,99654.97
2022-12-07T02:49:33.076Z,99664.81
2022-12-07T02:52:00.652Z,99660.50
2022-12-07T02:54:27.874Z,99661.31
2022-12-07T02:57:09.064Z,99654.78
2022-12-07T03:00:02.491Z,99642.41
2022-12-07T03:02:51.147Z,99628.69
2022-12-07T03:05:40.397Z,99656.44
2022-12-07T03:08:14.019Z,99657.81
2022-12-07T03:11:22.300Z,99651.78
2022-12-07T03:13:58.950Z,99638.56
2022-12-07T03:16:53.197Z,99639.38
2022-12-07T03:19:24.084Z,99631.34
2022-12-07T03:22:04.608Z,99630.19
2022-12-07T03:24:46.647Z,99623.97
2022-12-07T03:27:16.829Z,99631.19
2022-12-07T03:29:51.248Z,99618.81
2022-12-07T03:32:29.573Z,99623.16
2022-12-07T03:35:30.269Z,99612.78
2022-12-07T03:38:00.763Z,99607.94
2022-12-07T03:40:45.211Z,99605.44
2022-12-07T03:43:13.401Z,99599.41
2022-12-07T03:45:43.955Z,99606.94
2022-12-07T03:48:26.125Z,99613.78
2022-12-07T03:51:08.982Z,99594.41
2022-12-07T03:53:44.527Z,99601.59
2022-12-07T03:56:13.132Z,99591.56
2022-12-07T03:58:41.446Z,99578.34
2022-12-07T04:01:09.826Z,99594.22
2022-12-07T04:03:37.898Z,99592.88
2022-12-07T04:06:06.995Z,99588.53
2022-12-07T04:08:34.255Z,99598.59
2022-12-07T04:11:02.471Z,99603.09
2022-12-07T04:13:29.691Z,99602.25
2022-12-07T04:15:57.311Z,99596.56
2022-12-07T04:18:24.803Z,99585.38
2022-12-07T04:20:52.796Z,99591.03
2022-12-07T04:23:20.190Z,99576.81
2022-12-07T04:25:50.059Z,99585.38
2022-12-07T04:28:18.660Z,99589.69
2022-12-07T04:30:47.178Z,99583.88
2022-12-07T04:33:14.368Z,99585.19
2022-12-07T04:35:43.870Z,99572.31
2022-12-07T04:38:11.190Z,99555.44
2022-12-07T04:40:38.943Z,99568.78
2022-12-07T04:43:07.487Z,99569.13
2022-12-07T04:45:35.050Z,99569.47
2022-12-07T04:48:02.262Z,99561.09
2022-12-07T04:50:29.860Z,99554.72
2022-12-07T04:52:57.940Z,99557.94
2022-12-07T04:55:26.408Z,99531.19
2022-12-07T04:57:53.636Z,99562.13
2022-12-07T05:00:22.153Z,99578.66
2022-12-07T05:02:49.902Z,99575.81
2022-12-07T05:05:17.630Z,99575.47
2022-12-07T05:07:44.908Z,99564.13
2022-12-07T05:10:12.575Z,99559.06
2022-12-07T05:12:40.061Z,99557.41
2022-12-07T05:15:08.077Z,99548.06
2022-12-07T05:17:35.463Z,99566.47
2022-12-07T05:20:09.185Z,99554.41
2022-12-07T05:22:36.961Z,99554.25
2022-12-07T05:25:06.164Z,99542.53
2022-12-07T05:27:34.088Z,99548.53
2022-12-07T05:30:03.607Z,99545.22
2022-12-07T05:32:31.047Z,99532.66
2022-12-07T05:35:02.221Z,99538.38
2022-12-07T05:37:32.295Z,99530.50
2022-12-07T05:40:01.130Z,99523.81
2022-12-07T05:42:33.878Z,99544.38
2022-12-07T05:45:01.721Z,99549.38
2022-12-07T05:47:29.120Z,99553.56
2022-12-07T05:49:56.650Z,99551.91
2022-12-07T05:52:25.010Z,99550.53
2022-12-07T05:54:53.575Z,99554.72
2022-12-07T05:57:20.828Z,99554.38
2022-12-07T05:59:48.738Z,99544.00
2022-12-07T06:02:17.578Z,99552.03
2022-12-07T06:04:48.767Z,99549.69
2022-12-07T06:07:17.359Z,99549.16
2022-12-07T06:09:45.069Z,99547.19
2022-12-07T06:12:32.474Z,99546.03
2022-12-07T06:15:01.871Z,99550.03
2022-12-07T06:17:29.137Z,99553.88
2022-12-07T06:19:56.801Z,99556.38
2022-12-07T06:22:24.345Z,99556.72
2022-12-07T06:24:53.098Z,99558.03
2022-12-07T06:27:20.376Z,99533.97
2022-12-07T06:29:48.162Z,99547.34
2022-12-07T06:32:15.634Z,99542.50
2022-12-07T06:34:43.413Z,99566.09
2022-12-07T06:37:10.591Z,99553.88
2022-12-07T06:39:38.289Z,99566.72
2022-12-07T06:42:07.373Z,99558.34
2022-12-07T06:44:35.423Z,99563.41
2022-12-07T06:47:32.008Z,99563.41
2022-12-07T06:49:51.326Z,99553.41
2022-12-07T06:52:18.556Z,99543.00
2022-12-07T06:54:46.562Z,99544.84
2022-12-07T06:57:15.078Z,99541.34
2022-12-07T06:59:46.458Z,99545.81
2022-12-07T07:02:14.024Z,99545.66
2022-12-07T07:04:42.135Z,99547.03
2022-12-07T07:07:11.803Z,99546.66
2022-12-07T07:09:40.240Z,99535.66
2022-12-07T07:12:08.164Z,99534.81
2022-12-07T07:14:35.919Z,99548.19
2022-12-07T07:17:03.388Z,99536.81
2022-12-07T07:19:31.034Z,99551.38
2022-12-07T07:21:58.462Z,99540.66
2022-12-07T07:24:26.124Z,99549.84
2022-12-07T07:26:53.456Z,99548.81
2022-12-07T07:29:21.109Z,99549.53
2022-12-07T07:31:48.490Z,99548.66
2022-12-07T07:34:17.161Z,99553.00
2022-12-07T07:36:44.808Z,99560.00
2022-12-07T07:39:14.739Z,99558.88
2022-12-07T07:41:42.346Z,99558.00
2022-12-07T07:44:15.423Z,99565.69
2022-12-07T07:46:42.686Z,99562.53
2022-12-07T07:49:14.366Z,99557.91
2022-12-07T07:51:41.799Z,99553.03
2022-12-07T07:54:09.495Z,99546.00
2022-12-07T07:56:36.758Z,99545.19
2022-12-07T07:59:07.905Z,99559.47
2022-12-07T08:01:36.291Z,99558.44
2022-12-07T08:04:04.194Z,99538.28
2022-12-07T08:06:32.751Z,99571.25
2022-12-07T08:09:00.450Z,99564.38
2022-12-07T08:11:27.765Z,99556.84
2022-12-07T08:13:58.423Z,99562.03
2022-12-07T08:16:25.939Z,99571.72
2022-12-07T08:18:53.783Z,99575.22
2022-12-07T08:21:24.107Z,99603.94
2022-12-07T08:23:52.177Z,99597.31
2022-12-07T08:26:20.109Z,99589.50
2022-12-07T08:28:50.946Z,99610.56
2022-12-07T08:31:21.174Z,99606.38
2022-12-07T08:33:50.603Z,99607.56
2022-12-07T08:36:18.332Z,99617.09
2022-12-07T08:39:08.093Z,99618.28
2022-12-07T08:41:33.541Z,99616.91
2022-12-07T08:44:03.989Z,99609.00
2022-12-07T08:46:38.838Z,99602.50
2022-12-07T08:49:13.107Z,99600.53
2022-12-07T08:51:41.519Z,99604.22
2022-12-07T08:54:12.839Z,99602.38
2022-12-07T08:56:40.639Z,99599.47
2022-12-07T08:59:08.704Z,99606.84
2022-12-07T09:01:35.996Z,99598.25
2022-12-07T09:04:03.830Z,99601.56
2022-12-07T09:06:31.353Z,99595.16
2022-12-07T09:09:02.537Z,99589.97
2022-12-07T09:11:30.276Z,99598.78
2022-12-07T09:13:57.949Z,99589.22
2022-12-07T09:16:25.212Z,99592.88
2022-12-07T09:18:52.915Z,99592.59
2022-12-07T09:21:20.460Z,99598.53
2022-12-07T09:23:48.100Z,99596.66
2022-12-07T09:26:15.328Z,99589.59
2022-12-07T09:28:42.853Z,99591.28
2022-12-07T09:31:26.392Z,99572.41
2022-12-07T09:34:02.041Z,99575.97
2022-12-07T09:36:30.199Z,99563.09
2022-12-07T09:38:57.838Z,99557.53
2022-12-07T09:41:28.150Z,99561.91
2022-12-07T09:44:11.266Z,99559.38
2022-12-07T09:46:42.071Z,99561.78
2022-12-07T09:49:15.319Z,99554.50
2022-12-07T09:51:42.561Z,99554.25
2022-12-07T09:54:15.038Z,99564.00
2022-12-07T09:56:43.754Z,99547.81
2022-12-07T09:59:17.654Z,99552.75
2022-12-07T10:01:48.148Z,99561.19
2022-12-07T10:04:27.815Z,99562.38
2022-12-07T10:06:55.209Z,99531.97
2022-12-07T10:09:23.499Z,99561.13
2022-12-07T10:12:23.141Z,99543.94
2022-12-07T10:15:08.195Z,99560.78
2022-12-07T10:17:42.461Z,99567.19
2022-12-07T10:20:13.482Z,99571.84
2022-12-07T10:22:56.079Z,99561.47
2022-12-07T10:25:26.925Z,99570.44
2022-12-07T10:28:09.870Z,99567.72
2022-12-07T10:31:18.427Z,99570.13
2022-12-07T10:33:56.633Z,99562.75
2022-12-07T10:36:37.499Z,99566.66
2022-12-07T10:39:23.636Z,99560.38
2022-12-07T10:42:04.581Z,99559.38
2022-12-07T10:44:34.602Z,99554.38
2022-12-07T10:47:02.358Z,99558.91
2022-12-07T10:49:54.713Z,99547.22
2022-12-07T10:52:22.218Z,99556.47
2022-12-07T10:55:14.185Z,99553.91
2022-12-07T10:57:48.835Z,99544.06
2022-12-07T11:00:24.923Z,99519.97
2022-12-07T11:03:17.791Z,99523.88
2022-12-07T11:05:48.544Z,99525.31
2022-12-07T11:08:37.741Z,99529.31
2022-12-07T11:11:22.804Z,99530.69
2022-12-07T11:14:32.739Z,99530.81
2022-12-07T11:17:27.458Z,99519.78
2022-12-07T11:20:16.772Z,99522.09
2022-12-07T11:22:56.969Z,99525.72
2022-12-07T11:25:43.687Z,99532.00
2022-12-07T11:28:25.110Z,99532.88
2022-12-07T11:31:05.153Z,99522.03
2022-12-07T11:34:13.903Z,99537.78
2022-12-07T11:36:45.190Z,99538.34
2022-12-07T11:39:22.101Z,99533.50
2022-12-07T11:41:53.809Z,99529.25
2022-12-07T11:44:38.304Z,99526.84
2022-12-07T11:47:27.667Z,99535.38
2022-12-07T11:49:56.225Z,99540.84
2022-12-07T11:52:27.222Z,99529.81
2022-12-07T11:54:55.191Z,99537.69
2022-12-07T11:57:46.336Z,99530.81
2022-12-07T12:00:16.790Z,99535.50
2022-12-07T12:02:56.396Z,99524.94
2022-12-07T12:05:26.267Z,99515.94
2022-12-07T12:11:16.316Z,99515.31
2022-12-07T12:16:52.723Z,99517.84
2022-12-07T12:19:26.292Z,99512.47
2022-12-07T12:22:05.370Z,99517.09
2022-12-07T12:24:37.572Z,99509.78
2022-12-07T12:27:09.290Z,99503.38
2022-12-07T12:29:40.093Z,99503.56
2022-12-07T12:32:13.427Z,99494.38
2022-12-07T12:34:50.830Z,99493.38
2022-12-07T12:37:37.584Z,99488.09
2022-12-07T12:40:33.329Z,99510.00
2022-12-07T12:43:00.506Z,99510.72
2022-12-07T12:45:32.427Z,99494.03
2022-12-07T12:48:03.662Z,99510.81
2022-12-07T12:50:39.045Z,99502.94
2022-12-07T12:53:17.843Z,99504.88
2022-12-07T12:55:54.502Z,99490.69
2022-12-07T12:58:21.929Z,99509.59
2022-12-07T13:01:28.137Z,99501.34
2022-12-07T13:04:28.167Z,99517.94
2022-12-07T13:06:56.329Z,99516.84
2022-12-07T13:09:33.748Z,99509.03
2022-12-07T13:12:12.798Z,99519.34
2022-12-07T13:14:44.298Z,99509.50
2022-12-07T13:17:31.915Z,99521.00
2022-12-07T13:20:06.131Z,99530.53
2022-12-07T13:22:40.345Z,99527.63
2022-12-07T13:25:39.186Z,99539.88
2022-12-07T13:28:16.610Z,99524.44
2022-12-07T13:30:55.534Z,99538.50
2022-12-07T13:33:23.448Z,99539.34
2022-12-07T13:35:55.720Z,99542.19
2022-12-07T13:38:33.172Z,99536.53
2022-12-07T13:41:03.264Z,99532.44
2022-12-07T13:43:31.133Z,99535.66
2022-12-07T13:46:01.666Z,99535.03
2022-12-07T13:48:35.849Z,99552.81
2022-12-07T13:51:05.262Z,99545.81
2022-12-07T13:53:32.827Z,99551.50
2022-12-07T13:56:01.790Z,99549.34
2022-12-07T13:58:34.070Z,99554.25
2022-12-07T14:01:03.521Z,99559.00
2022-12-07T14:03:40.190Z,99551.16
2022-12-07T14:06:13.431Z,99558.75
2022-12-07T14:08:41.155Z,99551.16
2022-12-07T14:11:20.466Z,99558.16
2022-12-07T14:14:00.733Z,99555.31
2022-12-07T14:16:36.791Z,99559.00
2022-12-07T14:19:07.905Z,99553.75
2022-12-07T14:21:35.856Z,99557.81
2022-12-07T14:24:13.103Z,99563.38
2022-12-07T14:26:41.776Z,99555.22
2022-12-07T14:29:28.343Z,99544.66
2022-12-07T14:31:56.415Z,99551.06
2022-12-07T14:34:25.232Z,99569.78
2022-12-07T14:36:52.568Z,99545.81
2022-12-07T14:39:20.499Z,99558.38
2022-12-07T14:42:08.782Z,99562.75
2022-12-07T14:44:55.639Z,99571.91
2022-12-07T14:50:32.393Z,99576.63
2022-12-07T14:53:28.207Z,99570.47
2022-12-07T14:55:55.818Z,99577.53
2022-12-07T14:58:23.217Z,99590.53
2022-12-07T15:00:51.887Z,99584.63
2022-12-07T15:03:19.261Z,99595.78
2022-12-07T15:05:46.863Z,99603.63
2022-12-07T15:08:14.703Z,99598.34
2022-12-07T15:10:43.465Z,99612.94
2022-12-07T15:13:29.282Z,99611.09
2022-12-07T15:15:57.089Z,99601.19
2022-12-07T15:18:25.613Z,99611.66
2022-12-07T15:20:53.405Z,99608.31
2022-12-07T15:23:21.191Z,99592.25
2022-12-07T15:25:50.252Z,99615.72
2022-12-07T15:28:17.687Z,99619.28
2022-12-07T15:30:46.289Z,99621.84
2022-12-07T15:33:14.647Z,99625.03
2022-12-07T15:35:46.530Z,99623.97
2022-12-07T15:38:14.474Z,99624.53
2022-12-07T15:40:42.358Z,99628.09
2022-12-07T15:43:30.802Z,99645.00
2022-12-07T15:45:58.916Z,99622.97
2022-12-07T15:48:28.300Z,99628.88
2022-12-07T15:51:07.688Z,99630.25
2022-12-07T15:53:36.061Z,99616.91
2022-12-07T15:56:09.162Z,99620.03
2022-12-07T15:58:36.583Z,99614.06
2022-12-07T16:01:16.207Z,99639.63
2022-12-07T16:03:45.650Z,99638.00
2022-12-07T16:06:16.413Z,99645.53
2022-12-07T16:08:45.930Z,99637.06
2022-12-07T16:11:15.113Z,99651.00
2022-12-07T16:13:43.863Z,99642.47
2022-12-07T16:16:15.570Z,99643.91
2022-12-07T16:18:44.546Z,99645.59
2022-12-07T16:21:13.767Z,99648.81
2022-12-07T16:23:41.750Z,99648.56
2022-12-07T16:26:13.275Z,99639.69
2022-12-07T16:28:40.616Z,99653.03
2022-12-07T16:31:16.672Z,99654.94
2022-12-07T16:33:44.704Z,99648.78
2022-12-07T16:36:14.455Z,99639.47
2022-12-07T16:38:41.737Z,99635.47
2022-12-07T16:41:11.115Z,99635.44
2022-12-07T16:43:39.149Z,99632.50
2022-12-07T16:46:07.016Z,99637.44
2022-12-07T16:48:37.851Z,99633.91
2022-12-07T16:51:09.806Z,99625.63
2022-12-07T16:53:39.982Z,99640.69
2022-12-07T16:56:15.765Z,99635.66
2022-12-07T16:58:43.979Z,99633.28
2022-12-07T17:01:14.260Z,99639.28
2022-12-07T17:03:44.089Z,99655.97
2022-12-07T17:06:17.665Z,99655.50
2022-12-07T17:08:45.512Z,99662.53
2022-12-07T17:11:15.733Z,99665.06
2022-12-07T17:14:02.074Z,99668.97
2022-12-07T17:16:30.620Z,99658.44
2022-12-07T17:18:58.169Z,99650.59
2022-12-07T17:21:26.506Z,99633.06
2022-12-07T17:23:54.036Z,99638.44
2022-12-07T17:26:27.359Z,99635.09
2022-12-07T17:29:01.196Z,99624.22
2022-12-07T17:31:28.792Z,99627.22
2022-12-07T17:33:56.125Z,99627.94
2022-12-07T17:36:28.217Z,99638.16
2022-12-07T17:38:55.514Z,99635.97
2022-12-07T17:41:45.709Z,99644.19
2022-12-07T17:44:19.362Z,99643.31
2022-12-07T17:46:48.844Z,99647.84
2022-12-07T17:49:17.141Z,99646.53
2022-12-07T17:52:03.084Z,99644.69
2022-12-07T17:54:30.517Z,99640.19
2022-12-07T17:57:01.265Z,99642.38
2022-12-07T17:59:28.457Z,99646.56
2022-12-07T18:01:55.969Z,99653.09
2022-12-07T18:04:23.530Z,99646.41
2022-12-07T18:06:52.558Z,99650.91
2022-12-07T18:09:21.145Z,99658.78
2022-12-07T18:11:49.196Z,99655.63
2022-12-07T18:14:16.979Z,99659.81
2022-12-07T18:16:45.201Z,99650.41
2022-12-07T18:19:15.118Z,99641.34
2022-12-07T18:21:44.695Z,99644.00
2022-12-07T18:24:14.018Z,99645.38
2022-12-07T18:26:42.341Z,99632.81
2022-12-07T18:29:17.410Z,99641.19
2022-12-07T18:31:48.442Z,99640.03
2022-12-07T18:34:18.455Z,99651.59
2022-12-07T18:36:49.625Z,99651.59
2022-12-07T18:39:19.040Z,99659.75
2022-12-07T18:41:47.241Z,99655.72
2022-12-07T18:44:16.603Z,99650.84
2022-12-07T18:46:44.254Z,99657.25
2022-12-07T18:49:15.549Z,99644.66
2022-12-07T18:51:43.253Z,99652.22
2022-12-07T18:54:11.595Z,99646.50
2022-12-07T18:56:41.153Z,99651.03
2022-12-07T18:59:32.044Z,99658.75
2022-12-07T19:02:00.370Z,99676.97
2022-12-07T19:04:27.948Z,99681.47
2022-12-07T19:06:55.813Z,99678.47
2022-12-07T19:09:25.464Z,99687.53
2022-12-07T19:11:57.114Z,99686.53
2022-12-07T19:14:27.447Z,99675.66
2022-12-07T19:16:57.785Z,99672.47
2022-12-07T19:19:31.560Z,99670.81
2022-12-07T19:22:01.968Z,99679.31
2022-12-07T19:24:33.153Z,99683.84
2022-12-07T19:27:00.815Z,99678.44
2022-12-07T19:29:31.590Z,99682.13
2022-12-07T19:32:01.692Z,99683.47
2022-12-07T19:34:29.409Z,99689.84
2022-12-07T19:36:57.195Z,99695.91
2022-12-07T19:39:24.613Z,99694.41
2022-12-07T19:41:52.435Z,99692.41
2022-12-07T19:44:29.947Z,99691.22
2022-12-07T19:47:04.936Z,99681.69
2022-12-07T19:49:34.652Z,99680.81
2022-12-07T19:52:07.868Z,99688.19
2022-12-07T19:54:37.019Z,99683.63
2022-12-07T19:57:08.853Z,99687.34
2022-12-07T19:59:37.099Z,99690.69
2022-12-07T20:02:05.872Z,99700.56
2022-12-07T20:04:35.918Z,99700.38
2022-12-07T20:07:05.076Z,99697.50
2022-12-07T20:09:36.097Z,99695.00
2022-12-07T20:12:23.381Z,99684.44
2022-12-07T20:14:50.672Z,99688.59
2022-12-07T20:17:21.436Z,99691.47
2022-12-07T20:19:51.368Z,99690.78
2022-12-07T20:22:20.575Z,99679.56
2022-12-07T20:24:48.158Z,99682.75
2022-12-07T20:27:17.945Z,99675.34
2022-12-07T20:29:49.157Z,99675.09
2022-12-07T20:32:17.806Z,99670.41
2022-12-07T20:34:46.912Z,99676.28
2022-12-07T20:37:14.462Z,99674.09
2022-12-07T20:39:41.671Z,99667.75
2022-12-07T20:42:27.846Z,99645.84
2022-12-07T20:45:04.248Z,99654.38
2022-12-07T20:47:33.999Z,99663.59
2022-12-07T20:50:05.096Z,99666.94
2022-12-07T20:52:32.715Z,99673.00
2022-12-07T20:55:00.216Z,99658.06
2022-12-07T20:57:29.466Z,99671.47
2022-12-07T20:59:57.336Z,99662.25
2022-12-07T21:02:26.494Z,99662.75
2022-12-07T21:04:55.377Z,99671.47
2022-12-07T21:07:22.981Z,99677.16
2022-12-07T21:09:51.375Z,99686.06
2022-12-07T21:12:19.454Z,99683.53
2022-12-07T21:14:46.770Z,99675.13
2022-12-07T21:17:14.335Z,99689.84
2022-12-07T21:19:42.016Z,99683.44
2022-12-07T21:22:10.107Z,99683.78
2022-12-07T21:24:39.672Z,99683.78
2022-12-07T21:27:07.823Z,99686.97
2022-12-07T21:29:43.868Z,99686.72
2022-12-07T21:32:13.727Z,99698.84
2022-12-07T21:34:41.123Z,99696.69
2022-12-07T21:37:08.720Z,99691.19
2022-12-07T21:39:35.908Z,99687.06
2022-12-07T21:42:04.797Z,99691.22
2022-12-07T21:44:33.056Z,99696.59
2022-12-07T21:47:00.674Z,99702.31
2022-12-07T21:49:30.244Z,99696.81
2022-12-07T21:51:58.026Z,99692.28
2022-12-07T21:54:26.209Z,99694.59
2022-12-07T21:56:54.418Z,99704.31
2022-12-07T21:59:23.013Z,99696.97
2022-12-07T22:01:53.235Z,99705.66
2022-12-07T22:04:23.519Z,99704.84
2022-12-07T22:06:53.390Z,99709.03
2022-12-07T22:09:24.399Z,99709.34
2022-12-07T22:11:52.075Z,99705.31
2022-12-07T22:14:38.231Z,99712.19
2022-12-07T22:17:06.091Z,99702.97
2022-12-07T22:19:33.409Z,99701.63
2022-12-07T22:22:00.984Z,99697.59
2022-12-07T22:24:28.319Z,99694.41
2022-12-07T22:26:56.274Z,99694.75
2022-12-07T22:29:25.212Z,99693.22
2022-12-07T22:31:54.239Z,99695.56
2022-12-07T22:34:21.851Z,99685.50
2022-12-07T22:36:49.391Z,99694.91
2022-12-07T22:39:17.393Z,99696.09
2022-12-07T22:41:45.021Z,99689.88
2022-12-07T22:44:13.973Z,99698.44
2022-12-07T22:46:41.830Z,99692.41
2022-12-07T22:49:09.194Z,99694.75
2022-12-07T22:51:38.926Z,99692.91
2022-12-07T22:54:08.698Z,99688.72
2022-12-07T22:56:38.015Z,99685.56
2022-12-07T22:59:07.206Z,99687.25
2022-12-07T23:01:35.498Z,99690.25
2022-12-07T23:04:02.892Z,99678.88
2022-12-07T23:06:32.963Z,99692.91
2022-12-07T23:09:02.151Z,99662.63
2022-12-07T23:11:50.696Z,99669.81
2022-12-07T23:14:27.781Z,99676.84
2022-12-07T23:16:56.277Z,99681.72
2022-12-07T23:19:24.536Z,99686.75
2022-12-07T23:21:52.191Z,99687.56
2022-12-07T23:24:20.251Z,99693.59
2022-12-07T23:26:48.592Z,99691.03
2022-12-07T23:29:18.052Z,99679.16
2022-12-07T23:31:47.715Z,99673.81
2022-12-07T23:34:15.372Z,99674.50
2022-12-07T23:36:43.023Z,99677.16
2022-12-07T23:39:11.215Z,99678.94
2022-12-07T23:41:39.107Z,99687.59
2022-12-07T23:44:07.074Z,99690.44
2022-12-07T23:46:34.968Z,99693.75
2022-12-07T23:49:04.746Z,99683.22
2022-12-07T23:51:32.792Z,99675.41
2022-12-07T23:54:01.691Z,99683.91
2022-12-07T23:56:33.133Z,99686.94
2022-12-07T23:59:01.983Z,99691.16
